Time;durP1;ratioP1;P1;durP2;ratioP2;P2;SDS_P1;SDS_P2;PMS_P1;PMS_P2;Temp;Humidity;BMP_temperature;BMP_pressure;BME280_temperature;BME280_humidity;BME280_pressure;Samples;Min_cycle;Max_cycle;Signal;HPM_P1;HPM_P2
2022/11/12 00:00:37;;;;;;;18.20;16.30;;;;;;;8.39;76.79;97154.41;5032982;28;20613;-82
2022/11/12 00:03:04;;;;;;;17.70;15.77;;;;;;;8.28;77.59;97155.22;5032434;28;20230;-81
2022/11/12 00:05:33;;;;;;;32.23;16.70;;;;;;;8.23;77.95;97156.53;5032914;28;20202;-81
2022/11/12 00:08:00;;;;;;;45.10;17.50;;;;;;;8.18;77.55;97156.09;5032394;28;20198;-82
2022/11/12 00:10:27;;;;;;;23.27;16.53;;;;;;;8.09;77.92;97161.94;5032562;28;20195;-82
2022/11/12 00:12:54;;;;;;;17.43;15.60;;;;;;;8.11;78.47;97157.50;5032606;28;20209;-81
2022/11/12 00:15:21;;;;;;;47.03;19.10;;;;;;;8.02;78.30;97163.38;5031690;28;20566;-82
2022/11/12 00:17:47;;;;;;;25.53;18.40;;;;;;;8.02;78.54;97158.25;5031830;28;20214;-81
2022/11/12 00:20:14;;;;;;;50.00;19.27;;;;;;;7.93;78.29;97160.59;5031971;28;20195;-82
2022/11/12 00:22:42;;;;;;;31.27;19.23;;;;;;;7.81;78.52;97155.63;5032113;28;20218;-82
2022/11/12 00:25:08;;;;;;;35.27;19.63;;;;;;;7.77;79.19;97155.06;5031533;28;20198;-81
2022/11/12 00:27:35;;;;;;;27.63;21.00;;;;;;;7.65;79.33;97150.06;5032129;28;20674;-81
2022/11/12 00:30:03;;;;;;;35.87;22.20;;;;;;;7.51;79.16;97156.25;5032029;28;20197;-82
2022/11/12 00:32:30;;;;;;;22.47;20.17;;;;;;;7.42;80.10;97159.53;5028434;28;20222;-81
2022/11/12 00:34:56;;;;;;;22.00;18.27;;;;;;;7.34;80.38;97160.13;5015834;28;20191;-81
2022/11/12 00:37:24;;;;;;;20.17;18.00;;;;;;;7.52;79.92;97150.19;5031633;28;20222;-81
2022/11/12 00:39:51;;;;;;;19.07;17.10;;;;;;;7.64;79.20;97151.81;5031340;28;20281;-81
2022/11/12 00:42:18;;;;;;;18.03;16.23;;;;;;;7.74;78.84;97152.72;5031685;28;20232;-80
2022/11/12 00:44:44;;;;;;;18.67;16.67;;;;;;;7.74;78.29;97145.03;5031744;28;20198;-80
2022/11/12 00:47:11;;;;;;;33.47;18.27;;;;;;;7.60;78.02;97150.44;5031071;28;20198;-81
2022/11/12 00:49:37;;;;;;;19.67;17.33;;;;;;;7.47;78.51;97145.44;5031951;28;20198;-81
2022/11/12 00:52:04;;;;;;;26.47;18.83;;;;;;;7.28;78.86;97151.19;5031454;28;20210;-81
2022/11/12 00:54:30;;;;;;;25.53;19.00;;;;;;;7.27;79.69;97151.28;5032209;28;20214;-81
2022/11/12 00:56:59;;;;;;;19.27;17.23;;;;;;;7.30;79.76;97155.38;5031641;28;20221;-80
2022/11/12 00:59:25;;;;;;;18.87;16.97;;;;;;;7.36;79.35;97150.56;5031090;28;20233;-80
2022/11/12 01:01:52;;;;;;;20.03;17.83;;;;;;;7.48;78.90;97157.34;5030872;28;20305;-81
2022/11/12 01:04:19;;;;;;;22.33;17.40;;;;;;;7.49;78.48;97156.41;5031158;28;20198;-81
2022/11/12 01:06:45;;;;;;;23.03;18.80;;;;;;;7.37;78.70;97156.50;5031927;28;20194;-82
2022/11/12 01:09:11;;;;;;;52.43;21.53;;;;;;;7.02;79.47;97149.78;5030571;28;20194;-81
2022/11/12 01:11:40;;;;;;;20.33;18.13;;;;;;;7.03;80.08;97148.03;5031574;28;20226;-80
2022/11/12 01:14:10;;;;;;;21.50;18.00;;;;;;;7.07;80.00;97144.31;5030457;28;20209;-81
2022/11/12 01:16:37;;;;;;;19.90;17.80;;;;;;;7.17;80.03;97140.09;5025038;28;20229;-82
2022/11/12 01:19:06;;;;;;;19.93;17.83;;;;;;;7.32;79.22;97143.22;5030362;28;20205;-81
2022/11/12 01:21:37;;;;;;;19.07;17.07;;;;;;;7.42;78.57;97139.84;5030522;28;20681;-80
2022/11/12 01:24:03;;;;;;;18.87;16.87;;;;;;;7.38;77.69;97143.59;5030299;28;20217;-81
2022/11/12 01:26:30;;;;;;;18.30;16.07;;;;;;;7.40;77.03;97140.91;5030750;28;20194;-81
2022/11/12 01:28:57;;;;;;;18.60;16.30;;;;;;;7.39;77.04;97129.84;5023118;28;20207;-80
2022/11/12 01:31:27;;;;;;;17.57;15.77;;;;;;;7.41;76.67;97130.53;5017305;28;20225;-80
2022/11/12 01:33:56;;;;;;;17.80;15.90;;;;;;;7.36;76.93;97127.50;5030418;28;20190;-81
2022/11/12 01:36:23;;;;;;;20.10;16.20;;;;;;;7.25;77.31;97125.78;5029885;28;20728;-81
2022/11/12 01:38:51;;;;;;;17.50;15.73;;;;;;;7.30;77.41;97129.75;5030432;28;20209;-81
2022/11/12 01:41:21;;;;;;;16.60;14.90;;;;;;;7.30;77.57;97120.31;5030579;28;20236;-82
2022/11/12 01:43:47;;;;;;;17.10;15.30;;;;;;;7.29;77.72;97118.69;5030338;28;20214;-81
2022/11/12 01:46:19;;;;;;;16.00;14.30;;;;;;;7.35;77.34;97132.75;5029969;28;20197;-81
2022/11/12 01:48:52;;;;;;;15.53;13.93;;;;;;;7.42;77.53;97121.09;5029801;28;20198;-80
2022/11/12 01:51:21;;;;;;;15.93;14.30;;;;;;;7.43;77.36;97123.56;5030050;28;20234;-81
2022/11/12 01:53:51;;;;;;;15.93;14.17;;;;;;;7.41;77.28;97127.16;5028678;28;20674;-81
2022/11/12 01:56:19;;;;;;;17.83;14.33;;;;;;;7.40;77.89;97123.78;5029998;28;20190;-80
2022/11/12 01:58:49;;;;;;;15.47;13.87;;;;;;;7.40;78.10;97122.97;5029525;28;20222;-80
2022/11/12 02:01:15;;;;;;;16.00;13.87;;;;;;;7.40;77.81;97110.97;5029679;28;20221;-81
2022/11/12 02:03:42;;;;;;;16.67;14.57;;;;;;;7.39;77.98;97114.47;5029806;28;20194;-80
2022/11/12 02:06:13;;;;;;;16.27;14.30;;;;;;;7.35;78.02;97107.94;5029560;28;20197;-80
2022/11/12 02:08:42;;;;;;;20.23;15.23;;;;;;;7.33;78.10;97098.75;5023548;28;20183;-80
2022/11/12 02:11:14;;;;;;;17.40;14.87;;;;;;;7.34;78.15;97101.19;5029614;28;20240;-81
2022/11/12 02:14:00;;;;;;;15.90;14.20;;;;;;;7.38;78.33;97102.59;5023910;28;20198;-81
2022/11/12 02:16:30;;;;;;;17.00;14.60;;;;;;;7.35;78.50;97107.13;5030373;28;20205;-79
2022/11/12 02:18:56;;;;;;;17.40;14.93;;;;;;;7.38;78.13;97099.22;5029940;28;20206;-80
2022/11/12 02:21:25;;;;;;;17.87;15.13;;;;;;;7.35;78.07;97095.13;5029891;28;20222;-81
2022/11/12 02:23:59;;;;;;;23.03;15.23;;;;;;;7.37;78.28;97089.88;5029599;28;20198;-80
2022/11/12 02:26:28;;;;;;;17.17;15.27;;;;;;;7.42;78.17;97080.91;5020352;28;20206;-80
2022/11/12 02:28:55;;;;;;;18.17;14.57;;;;;;;7.45;77.65;97087.56;5025741;28;20205;-80
2022/11/12 02:31:21;;;;;;;22.47;15.70;;;;;;;7.33;78.43;97089.31;5029717;28;20210;-80
2022/11/12 02:33:48;;;;;;;21.13;16.23;;;;;;;7.10;79.59;97098.78;5030255;28;20233;-80
2022/11/12 02:36:14;;;;;;;16.47;14.67;;;;;;;7.00;80.80;97097.03;5029517;28;20187;-80
2022/11/12 02:38:42;;;;;;;16.13;14.37;;;;;;;7.04;80.74;97091.56;5030449;28;20233;-81
2022/11/12 02:41:08;;;;;;;16.67;14.37;;;;;;;7.17;80.50;97094.00;5033317;28;20218;-80
2022/11/12 02:43:35;;;;;;;16.40;14.10;;;;;;;7.28;79.90;97087.13;5033099;28;20214;-80
2022/11/12 02:46:01;;;;;;;17.40;14.67;;;;;;;7.33;79.89;97094.44;5033293;28;20194;-79
2022/11/12 02:48:28;;;;;;;16.53;14.47;;;;;;;7.39;79.41;97093.16;5039408;28;20210;-81
2022/11/12 02:50:54;;;;;;;15.37;12.50;;;;;;;7.42;78.99;97086.03;5033187;28;20202;-82
2022/11/12 02:53:21;;;;;;;14.63;13.03;;;;;;;7.41;79.24;97083.59;5032428;28;20229;-80
2022/11/12 02:55:48;;;;;;;13.20;11.83;;;;;;;7.35;80.02;97084.06;5032231;28;20201;-80
2022/11/12 02:58:15;;;;;;;28.83;13.73;;;;;;;7.24;79.94;97085.72;5032309;28;20210;-81
2022/11/12 03:00:42;;;;;;;17.90;13.30;;;;;;;7.30;80.06;97078.50;5032825;28;20187;-81
2022/11/12 03:03:08;;;;;;;14.67;13.17;;;;;;;7.22;80.20;97079.91;5032757;28;20214;-82
2022/11/12 03:05:35;;;;;;;14.40;12.83;;;;;;;7.12;81.17;97085.88;5033355;28;20213;-81
2022/11/12 03:08:04;;;;;;;13.57;11.93;;;;;;;7.04;81.21;97085.63;5033019;28;20194;-81
2022/11/12 03:10:31;;;;;;;12.87;11.63;;;;;;;6.91;81.96;97088.34;5031831;28;20203;-80
2022/11/12 03:13:01;;;;;;;12.87;11.67;;;;;;;6.98;82.01;97092.03;5033111;28;20214;-80
2022/11/12 03:15:28;;;;;;;17.20;12.23;;;;;;;6.99;81.72;97095.41;5031871;28;20669;-82
2022/11/12 03:17:57;;;;;;;13.20;11.80;;;;;;;6.88;81.73;97102.19;5032524;28;20223;-80
2022/11/12 03:20:23;;;;;;;13.90;12.50;;;;;;;6.86;82.04;97104.03;5032050;28;20206;-81
2022/11/12 03:22:56;;;;;;;12.27;11.07;;;;;;;6.83;82.39;97101.69;5030780;28;20218;-81
2022/11/12 03:25:22;;;;;;;11.63;10.30;;;;;;;6.86;82.57;97098.09;5031936;28;20308;-82
2022/11/12 03:27:51;;;;;;;11.17;10.07;;;;;;;7.04;81.88;97099.25;5032516;28;20191;-81
2022/11/12 03:30:20;;;;;;;11.37;10.20;;;;;;;7.16;80.92;97105.19;5032456;28;20277;-81
2022/11/12 03:32:47;;;;;;;31.07;12.00;;;;;;;7.02;81.30;97111.34;5032187;28;20260;-81
2022/11/12 03:35:13;;;;;;;11.93;10.73;;;;;;;7.05;81.05;97113.69;5032475;28;20210;-81
2022/11/12 03:37:40;;;;;;;14.20;10.73;;;;;;;6.84;82.35;97115.31;5031574;28;20214;-80
2022/11/12 03:40:07;;;;;;;10.83;9.73;;;;;;;6.96;81.88;97111.00;5032210;28;20190;-79
2022/11/12 03:42:33;;;;;;;12.20;9.40;;;;;;;6.91;81.97;97108.81;5032997;28;20217;-81
2022/11/12 03:45:00;;;;;;;11.37;10.17;;;;;;;6.94;81.79;97104.25;5035949;28;20198;-80
2022/11/12 03:47:28;;;;;;;11.27;10.13;;;;;;;6.96;81.93;97113.56;5032214;28;20209;-81
2022/11/12 03:49:54;;;;;;;11.00;9.93;;;;;;;7.07;81.44;97118.69;5031426;28;20202;-81
2022/11/12 03:52:21;;;;;;;10.87;9.87;;;;;;;7.15;80.68;97116.34;5032007;28;20229;-79
2022/11/12 03:54:47;;;;;;;11.33;10.20;;;;;;;7.19;80.16;97113.44;5031981;28;20197;-81
2022/11/12 03:57:13;;;;;;;10.87;9.77;;;;;;;7.24;80.15;97116.47;5032489;28;20209;-81
2022/11/12 03:59:40;;;;;;;12.70;10.27;;;;;;;7.18;80.33;97114.38;5031812;28;20201;-81
2022/11/12 04:02:06;;;;;;;13.17;10.50;;;;;;;7.15;80.46;97109.47;5032051;28;20569;-81
2022/11/12 04:09:58;;;;;;;11.20;10.10;;;;;;;7.10;80.29;97113.34;5027645;28;20205;-80
2022/11/12 04:15:09;;;;;;;12.33;11.13;;;;;;;7.12;80.33;97114.03;5031868;28;20692;-81
2022/11/12 04:23:05;;;;;;;15.20;11.57;;;;;;;7.05;80.92;97120.56;5031809;28;20224;-80
2022/11/12 04:28:16;;;;;;;41.80;11.13;;;;;;;7.07;80.27;97114.41;5030371;28;20208;-81
2022/11/12 04:30:41;;;;;;;11.47;10.37;;;;;;;7.09;80.66;97112.53;5031796;28;20195;-80
2022/11/12 04:33:08;;;;;;;10.57;9.53;;;;;;;7.12;80.39;97116.63;5031972;28;20210;-82
2022/11/12 04:35:36;;;;;;;11.60;10.50;;;;;;;7.10;80.42;97119.28;5031599;28;20587;-81
2022/11/12 04:38:02;;;;;;;147.67;17.53;;;;;;;6.88;80.95;97117.53;5031571;28;20573;-81
2022/11/12 04:46:04;;;;;;;9.53;8.63;;;;;;;6.89;81.68;97118.34;5027053;28;20586;-81
2022/11/12 04:48:30;;;;;;;9.70;8.80;;;;;;;6.91;81.33;97114.75;5030923;28;20190;-80
2022/11/12 04:51:00;;;;;;;11.20;8.33;;;;;;;6.94;80.61;97117.06;5030571;28;20201;-81
2022/11/12 04:53:29;;;;;;;13.80;9.10;;;;;;;6.95;79.78;97122.97;5030682;28;20206;-81
2022/11/12 04:55:59;;;;;;;9.10;8.17;;;;;;;6.90;80.18;97122.53;5030350;28;20217;-80
2022/11/12 04:58:25;;;;;;;9.43;8.50;;;;;;;6.89;80.63;97120.91;5030267;28;20222;-80
2022/11/12 05:00:52;;;;;;;9.67;8.67;;;;;;;6.90;80.20;97125.09;5030979;28;20194;-81
2022/11/12 05:03:18;;;;;;;9.80;8.90;;;;;;;6.94;80.50;97123.91;5030635;28;20217;-80
2022/11/12 05:05:45;;;;;;;10.17;9.03;;;;;;;6.91;80.40;97124.19;5030534;28;20569;-79
2022/11/12 05:08:13;;;;;;;14.77;8.97;;;;;;;6.87;81.01;97128.72;5030497;28;20199;-82
2022/11/12 05:10:39;;;;;;;23.60;10.23;;;;;;;6.71;82.54;97124.84;5029650;28;20191;-82
2022/11/12 05:13:06;;;;;;;9.63;8.73;;;;;;;6.70;82.82;97124.03;5030106;28;20214;-81
2022/11/12 05:15:35;;;;;;;10.10;8.53;;;;;;;6.78;82.10;97123.44;5030288;28;20194;-81
2022/11/12 05:18:01;;;;;;;8.93;8.00;;;;;;;6.88;81.54;97122.66;5030418;28;20222;-80
2022/11/12 05:20:28;;;;;;;9.07;8.27;;;;;;;6.93;80.79;97117.16;5030621;28;20198;-81
2022/11/12 05:22:54;;;;;;;9.47;8.57;;;;;;;6.97;80.38;97120.31;5030837;28;20217;-81
2022/11/12 05:25:22;;;;;;;10.77;9.07;;;;;;;6.88;81.29;97116.72;5030087;28;20206;-79
2022/11/12 05:27:48;;;;;;;8.87;8.07;;;;;;;6.83;81.15;97114.50;5021460;28;20198;-80
2022/11/12 05:30:15;;;;;;;11.03;8.47;;;;;;;6.66;82.65;97120.06;5030465;28;20751;-80
2022/11/12 05:32:41;;;;;;;9.07;7.87;;;;;;;6.74;82.73;97116.91;5030595;28;20233;-81
2022/11/12 05:35:08;;;;;;;8.90;8.10;;;;;;;6.78;82.26;97119.13;5022161;28;20198;-81
2022/11/12 05:37:35;;;;;;;56.07;11.10;;;;;;;6.73;82.06;97128.13;5051174;28;20201;-81
2022/11/12 05:40:01;;;;;;;10.20;8.07;;;;;;;6.65;82.83;97122.75;5046538;28;20209;-80
2022/11/12 05:42:29;;;;;;;11.60;8.07;;;;;;;6.67;82.95;97119.16;5029690;28;20226;-82
2022/11/12 05:44:55;;;;;;;7.87;7.17;;;;;;;6.70;82.10;97121.47;5029844;28;20666;-80
2022/11/12 05:47:22;;;;;;;8.97;7.10;;;;;;;6.69;82.21;97121.59;5029206;28;20209;-81
2022/11/12 05:49:48;;;;;;;7.57;6.87;;;;;;;6.76;81.70;97121.00;5023230;28;20194;-80
2022/11/12 05:52:15;;;;;;;7.77;7.03;;;;;;;6.79;81.25;97133.56;5029389;28;20230;-80
2022/11/12 05:54:41;;;;;;;7.53;6.83;;;;;;;6.78;81.83;97136.25;5029201;28;20193;-80
2022/11/12 05:57:08;;;;;;;7.83;7.03;;;;;;;6.83;84.60;97131.59;5020019;28;20199;-81
2022/11/12 05:59:35;;;;;;;9.03;6.83;;;;;;;7.00;84.33;97131.16;5028428;28;20830;-82
2022/11/12 06:02:02;;;;;;;7.27;6.60;;;;;;;7.14;84.36;97133.47;5025181;28;20225;-81
2022/11/12 06:04:28;;;;;;;6.93;6.33;;;;;;;7.22;82.70;97143.94;5028576;28;20209;-81
2022/11/12 06:06:55;;;;;;;7.70;7.03;;;;;;;7.24;80.40;97142.09;5028571;28;20197;-80
2022/11/12 06:09:21;;;;;;;7.70;7.00;;;;;;;7.27;79.47;97146.16;5028717;28;20202;-80
2022/11/12 06:11:50;;;;;;;24.17;8.40;;;;;;;7.01;79.56;97143.03;5028355;28;20222;-79
2022/11/12 06:14:17;;;;;;;21.07;8.50;;;;;;;6.94;80.72;97145.22;5026448;28;20282;-81
2022/11/12 06:16:44;;;;;;;14.40;7.73;;;;;;;6.92;80.74;97159.91;5029296;28;20198;-80
2022/11/12 06:19:11;;;;;;;7.73;7.03;;;;;;;6.93;80.88;97146.16;5029218;28;20222;-81
2022/11/12 06:21:37;;;;;;;19.13;8.07;;;;;;;6.97;81.32;97153.59;5028426;28;20770;-80
2022/11/12 06:24:04;;;;;;;8.67;7.87;;;;;;;6.96;81.42;97145.09;5029888;28;20573;-80
2022/11/12 06:26:31;;;;;;;8.10;7.30;;;;;;;6.89;87.06;97155.00;5030031;28;20205;-82
2022/11/12 06:28:57;;;;;;;8.27;7.47;;;;;;;7.01;82.41;97147.31;5028869;28;20201;-81
2022/11/12 06:31:24;;;;;;;9.13;7.63;;;;;;;6.99;81.94;97144.06;5029961;28;20237;-81
2022/11/12 06:33:51;;;;;;;21.67;8.53;;;;;;;6.95;81.86;97140.91;5029770;28;20206;-81
2022/11/12 06:36:20;;;;;;;8.70;7.80;;;;;;;6.97;82.10;97145.91;5029674;28;20202;-80
2022/11/12 06:38:47;;;;;;;8.70;7.80;;;;;;;6.96;82.31;97151.97;5029824;28;20225;-80
2022/11/12 06:41:13;;;;;;;7.60;6.90;;;;;;;6.94;81.25;97147.78;5030117;28;20253;-81
2022/11/12 06:43:41;;;;;;;7.77;7.07;;;;;;;6.99;81.49;97144.88;5030428;28;20202;-82
2022/11/12 06:46:10;;;;;;;7.53;6.83;;;;;;;6.96;81.61;97146.84;5028955;28;20194;-80
2022/11/12 06:48:37;;;;;;;8.10;7.40;;;;;;;6.99;81.18;97155.13;5028661;28;20198;-81
2022/11/12 06:51:11;;;;;;;8.30;7.43;;;;;;;6.93;81.52;97151.25;5028100;28;20205;-80
2022/11/12 06:53:37;;;;;;;7.73;6.93;;;;;;;6.92;81.76;97153.97;5028686;28;20213;-82
2022/11/12 06:56:06;;;;;;;8.63;7.60;;;;;;;6.89;81.90;97160.13;5027175;28;20285;-81
2022/11/12 06:58:33;;;;;;;7.83;7.17;;;;;;;6.92;81.71;97157.34;5028692;28;20210;-80
2022/11/12 07:01:05;;;;;;;7.73;6.93;;;;;;;6.88;81.97;97153.38;5027413;28;20193;-81
2022/11/12 07:03:31;;;;;;;7.47;6.80;;;;;;;6.86;82.21;97156.97;5028634;28;20563;-80
2022/11/12 07:05:58;;;;;;;7.60;6.90;;;;;;;6.91;81.64;97152.34;5028503;28;20202;-81
2022/11/12 07:08:26;;;;;;;10.47;7.50;;;;;;;6.79;82.61;97166.03;5025609;28;20210;-81
2022/11/12 07:10:55;;;;;;;7.43;6.83;;;;;;;6.86;82.41;97160.34;5028518;28;20218;-81
2022/11/12 07:13:22;;;;;;;7.40;6.70;;;;;;;6.89;82.28;97156.75;5028876;28;20198;-81
2022/11/12 07:15:48;;;;;;;6.70;6.10;;;;;;;6.92;82.15;97159.09;5028491;28;20244;-80
2022/11/12 07:18:14;;;;;;;7.07;6.47;;;;;;;6.98;82.44;97157.78;5028763;28;20580;-81
2022/11/12 07:20:41;;;;;;;7.20;6.50;;;;;;;7.01;81.88;97155.81;5028761;28;20569;-79
2022/11/12 07:23:07;;;;;;;9.17;6.27;;;;;;;7.04;82.13;97165.84;5029084;28;20233;-82
2022/11/12 07:25:35;;;;;;;7.30;6.33;;;;;;;7.09;81.66;97157.81;5030321;28;20332;-82
2022/11/12 07:28:02;;;;;;;9.07;6.00;;;;;;;7.11;81.14;97161.91;5032859;28;20559;-81
2022/11/12 07:30:28;;;;;;;7.27;5.60;;;;;;;7.11;81.65;97161.09;5032244;28;20198;-81
2022/11/12 07:32:58;;;;;;;5.60;5.10;;;;;;;7.11;81.17;97161.09;5031061;28;20218;-79
2022/11/12 07:35:24;;;;;;;5.83;5.23;;;;;;;7.06;81.31;97156.31;5030358;28;20209;-81
2022/11/12 07:37:50;;;;;;;6.30;5.70;;;;;;;7.00;81.89;97153.38;5030548;28;20209;-82
2022/11/12 07:40:17;;;;;;;5.50;4.93;;;;;;;7.03;81.90;97155.72;5032077;28;20198;-79
2022/11/12 07:42:45;;;;;;;5.50;5.00;;;;;;;7.04;81.77;97153.03;5031417;28;20214;-80
2022/11/12 07:45:11;;;;;;;5.50;5.00;;;;;;;7.06;81.61;97156.31;5032053;28;20456;-83
2022/11/12 07:47:38;;;;;;;5.67;5.17;;;;;;;7.58;90.25;97155.69;5033745;28;20206;-80
2022/11/12 07:50:05;;;;;;;5.50;4.97;;;;;;;7.65;82.74;97150.91;5029691;28;20577;-81
2022/11/12 07:52:32;;;;;;;12.77;5.63;;;;;;;7.54;82.05;97154.28;5025737;28;20234;-80
2022/11/12 07:54:58;;;;;;;8.20;5.40;;;;;;;7.54;82.00;97153.47;5030164;28;20210;-80
2022/11/12 07:57:25;;;;;;;12.40;6.20;;;;;;;7.86;100.00;97161.22;5032542;28;20202;-80
2022/11/12 07:59:53;;;;;;;23.43;18.57;;;;;;;7.92;83.21;97156.41;5030154;28;20224;-80
2022/11/12 08:02:19;;;;;;;12.03;9.47;;;;;;;7.83;81.54;97151.19;5029933;28;20241;-82
2022/11/12 08:04:45;;;;;;;7.03;6.13;;;;;;;7.71;81.62;97147.84;5018487;28;20195;-82
2022/11/12 08:07:12;;;;;;;14.67;5.63;;;;;;;7.53;82.56;97154.38;5030168;28;20206;-82
2022/11/12 08:09:38;;;;;;;6.37;5.50;;;;;;;7.50;82.67;97150.34;5031184;28;20676;-83
2022/11/12 08:12:05;;;;;;;6.70;6.00;;;;;;;7.55;83.12;97153.34;5032345;28;20236;-82
2022/11/12 08:14:32;;;;;;;6.07;5.57;;;;;;;7.58;83.18;97152.28;5031038;28;20389;-82
2022/11/12 08:17:00;;;;;;;6.43;5.83;;;;;;;7.49;83.65;97155.59;5030582;28;20198;-80
2022/11/12 08:19:26;;;;;;;6.63;6.00;;;;;;;7.56;83.43;97159.28;5032860;28;20216;-81
2022/11/12 08:21:53;;;;;;;6.50;5.90;;;;;;;7.55;83.69;97170.47;5030683;28;20226;-82
2022/11/12 08:24:19;;;;;;;6.07;5.47;;;;;;;7.53;84.30;97162.09;5030988;28;20206;-80
2022/11/12 08:26:46;;;;;;;6.77;6.17;;;;;;;7.60;83.59;97178.63;5030813;28;20198;-83
2022/11/12 08:29:12;;;;;;;6.80;5.87;;;;;;;7.63;83.58;97168.13;5030668;28;20285;-81
2022/11/12 08:31:39;;;;;;;6.00;5.50;;;;;;;7.65;83.31;97170.59;5030549;28;20222;-80
2022/11/12 08:34:11;;;;;;;5.93;5.43;;;;;;;7.69;83.45;97166.84;5029553;28;20222;-80
2022/11/12 08:36:39;;;;;;;44.03;22.27;;;;;;;7.50;85.07;97170.84;5030211;28;20198;-81
2022/11/12 08:39:06;;;;;;;33.50;27.87;;;;;;;7.62;84.76;97166.50;5029742;28;20217;-79
2022/11/12 08:41:33;;;;;;;13.30;9.87;;;;;;;7.62;87.16;97171.63;5030515;28;20226;-80
2022/11/12 08:43:59;;;;;;;7.73;6.93;;;;;;;7.66;86.29;97175.59;5029810;28;20203;-81
2022/11/12 08:46:26;;;;;;;6.63;6.03;;;;;;;7.76;85.18;97179.06;5030644;28;20193;-81
2022/11/12 08:48:52;;;;;;;6.80;6.20;;;;;;;7.83;83.74;97180.22;5030996;28;20209;-82
2022/11/12 08:51:20;;;;;;;8.20;6.83;;;;;;;7.62;84.20;97169.06;5026393;28;20218;-81
2022/11/12 08:53:46;;;;;;;9.10;6.67;;;;;;;7.53;84.51;97169.78;5030607;28;20214;-80
2022/11/12 08:56:13;;;;;;;10.57;6.47;;;;;;;7.60;84.68;97174.31;5031245;28;20434;-81
2022/11/12 08:58:42;;;;;;;8.63;6.40;;;;;;;7.69;84.78;97174.56;5030169;28;20225;-80
2022/11/12 09:01:09;;;;;;;7.97;6.70;;;;;;;7.70;85.12;97164.16;5029454;28;20191;-81
2022/11/12 09:03:39;;;;;;;13.10;7.50;;;;;;;7.80;84.50;97165.06;5030057;28;20198;-81
2022/11/12 09:06:06;;;;;;;10.63;7.57;;;;;;;7.86;83.78;97168.91;5030210;28;20212;-81
2022/11/12 09:08:36;;;;;;;7.90;7.10;;;;;;;7.90;83.44;97168.53;5030999;28;20202;-82
2022/11/12 09:11:03;;;;;;;8.53;6.83;;;;;;;7.91;83.97;97171.91;5030385;28;20612;-81
2022/11/12 09:13:29;;;;;;;7.43;6.57;;;;;;;7.91;83.70;97171.91;5029908;28;20198;-80
2022/11/12 09:16:00;;;;;;;7.13;6.47;;;;;;;7.92;83.77;97169.22;5030503;28;20209;-80
2022/11/12 09:18:27;;;;;;;7.60;6.90;;;;;;;7.94;83.66;97172.50;5031043;28;20202;-81
2022/11/12 09:20:53;;;;;;;6.80;6.20;;;;;;;7.93;83.89;97175.97;5031156;28;20202;-82
2022/11/12 09:23:20;;;;;;;7.60;6.10;;;;;;;7.97;83.94;97181.69;5030867;28;20316;-82
2022/11/12 09:25:47;;;;;;;7.13;6.40;;;;;;;8.03;83.40;97188.09;5030947;28;20206;-81
2022/11/12 09:28:16;;;;;;;6.70;6.10;;;;;;;8.05;82.63;97187.03;5030495;28;20202;-81
2022/11/12 09:30:45;;;;;;;6.13;5.63;;;;;;;8.10;82.30;97184.91;5022568;28;20199;-81
2022/11/12 09:33:12;;;;;;;6.37;5.77;;;;;;;8.18;82.24;97179.19;5011793;28;20223;-81
2022/11/12 09:35:38;;;;;;;6.23;5.63;;;;;;;8.23;82.53;97179.63;5030550;28;20209;-80
2022/11/12 09:38:04;;;;;;;9.97;6.60;;;;;;;8.10;82.10;97182.34;5029684;28;20281;-81
2022/11/12 09:40:55;;;;;;;15.20;7.00;;;;;;;8.02;82.43;97181.34;5031081;28;20210;-81
2022/11/12 09:43:27;;;;;;;6.10;5.60;;;;;;;8.02;82.74;97181.34;5031080;28;20186;-81
2022/11/12 09:45:56;;;;;;;6.33;5.80;;;;;;;8.11;83.05;97189.09;5031870;28;20202;-80
2022/11/12 09:48:26;;;;;;;8.47;6.13;;;;;;;8.16;83.19;97181.88;5029775;28;20876;-80
2022/11/12 09:50:59;;;;;;;53.50;41.23;;;;;;;8.09;84.20;97190.97;5031324;28;20198;-81
2022/11/12 09:53:35;;;;;;;57.33;44.63;;;;;;;8.13;84.23;97184.66;5030887;28;20232;-83
2022/11/12 09:56:06;;;;;;;20.20;16.93;;;;;;;8.09;84.97;97180.72;5022133;28;20205;-81
2022/11/12 09:58:33;;;;;;;19.93;14.97;;;;;;;8.11;85.91;97183.97;5011037;28;20685;-80
2022/11/12 10:01:07;;;;;;;8.17;7.37;;;;;;;8.21;84.89;97174.63;5011221;28;20211;-80
2022/11/12 10:03:39;;;;;;;6.57;5.97;;;;;;;8.35;83.53;97185.56;5030089;28;20194;-81
2022/11/12 10:06:12;;;;;;;6.30;5.70;;;;;;;8.41;82.78;97183.31;5031210;28;20187;-81
2022/11/12 10:08:52;;;;;;;6.10;5.60;;;;;;;8.51;82.53;97181.63;5030622;28;20219;-81
2022/11/12 10:12:30;;;;;;;7.13;6.43;;;;;;;8.45;83.74;97171.88;5030853;28;20218;-82
2022/11/12 10:14:42;;;;;;;6.70;6.10;;;;;;;8.55;83.24;97170.19;5030642;28;20292;-80
2022/11/12 10:17:17;;;;;;;6.70;6.00;;;;;;;8.64;82.27;97159.16;5030128;28;20202;-81
2022/11/12 10:20:00;;;;;;;6.63;6.10;;;;;;;8.79;81.53;97164.78;5030030;28;20895;-81
2022/11/12 10:22:40;;;;;;;6.17;5.57;;;;;;;8.89;80.85;97159.69;5030966;28;20721;-81
2022/11/12 10:25:14;;;;;;;6.40;5.90;;;;;;;9.00;80.77;97159.63;5030899;28;20201;-80
2022/11/12 10:27:43;;;;;;;18.47;16.13;;;;;;;9.08;80.33;97162.38;5030365;28;20213;-82
2022/11/12 10:30:16;;;;;;;24.37;20.80;;;;;;;9.20;80.42;97158.78;5030669;28;20198;-81
2022/11/12 10:32:44;;;;;;;10.87;9.50;;;;;;;9.43;79.87;97145.75;5030631;28;20226;-80
2022/11/12 10:35:13;;;;;;;7.40;6.70;;;;;;;9.64;78.67;97141.31;5030464;28;20230;-82
2022/11/12 10:37:46;;;;;;;11.33;6.77;;;;;;;9.71;78.91;97142.41;5029014;28;20196;-79
2022/11/12 10:40:32;;;;;;;7.70;7.10;;;;;;;9.77;79.93;97134.19;5030185;28;20562;-83
2022/11/12 10:43:04;;;;;;;7.67;7.03;;;;;;;9.79;78.26;97128.91;5023823;28;20587;-81
2022/11/12 10:45:31;;;;;;;11.10;9.10;;;;;;;9.77;79.02;97131.59;5029778;28;20203;-81
2022/11/12 10:47:59;;;;;;;7.23;6.63;;;;;;;9.92;78.73;97124.31;5029635;28;20245;-80
2022/11/12 10:50:30;;;;;;;7.30;6.70;;;;;;;10.03;78.32;97117.25;5026735;28;20191;-81
2022/11/12 10:53:01;;;;;;;7.80;7.00;;;;;;;10.26;77.72;97114.44;5027093;28;20224;-80
2022/11/12 10:55:30;;;;;;;10.20;7.10;;;;;;;10.41;77.48;97118.22;5028914;28;20194;-81
2022/11/12 10:58:19;;;;;;;9.70;8.80;;;;;;;10.46;76.65;97110.91;5029402;28;20293;-82
2022/11/12 11:00:54;;;;;;;8.50;7.60;;;;;;;10.57;76.97;97108.19;5032581;28;20202;-82
2022/11/12 11:03:24;;;;;;;19.73;12.90;;;;;;;10.54;75.83;97107.66;5033367;28;20241;-82
2022/11/12 11:05:54;;;;;;;22.47;14.43;;;;;;;10.67;75.65;97108.97;5032452;28;20207;-81
2022/11/12 11:08:49;;;;;;;12.57;10.20;;;;;;;10.72;75.97;97114.50;5033416;28;20202;-80
2022/11/12 11:11:22;;;;;;;9.27;8.17;;;;;;;10.82;75.52;97103.34;4997982;28;20225;-82
2022/11/12 11:13:51;;;;;;;8.87;8.07;;;;;;;10.80;75.56;97095.75;5033511;28;20202;-80
2022/11/12 11:16:20;;;;;;;8.33;7.53;;;;;;;10.85;74.97;97092.78;5032868;28;20202;-80
2022/11/12 11:18:51;;;;;;;9.67;7.87;;;;;;;11.01;75.19;97088.63;5032953;28;20199;-81
2022/11/12 11:21:31;;;;;;;8.60;7.80;;;;;;;11.07;74.16;97089.84;5032798;28;20206;-81
2022/11/12 11:24:07;;;;;;;8.53;7.73;;;;;;;11.10;74.84;97084.41;5027115;28;20191;-82
2022/11/12 11:26:49;;;;;;;7.97;7.27;;;;;;;11.23;74.18;97084.06;5032647;28;20301;-81
2022/11/12 11:29:31;;;;;;;8.50;7.70;;;;;;;11.33;73.92;97083.06;5033578;28;20189;-81
2022/11/12 11:32:06;;;;;;;8.47;7.77;;;;;;;11.32;73.31;97078.06;5032177;28;20305;-83
2022/11/12 11:34:43;;;;;;;8.70;8.00;;;;;;;11.23;72.87;97081.47;5032585;28;20194;-80
2022/11/12 11:37:24;;;;;;;8.80;8.10;;;;;;;11.18;73.00;97079.34;5028295;28;20182;-80
2022/11/12 11:39:59;;;;;;;8.43;7.63;;;;;;;11.08;73.71;97074.25;5034319;28;20202;-81
2022/11/12 11:42:51;;;;;;;8.73;7.93;;;;;;;11.21;73.62;97067.91;5033221;28;20751;-81
2022/11/12 11:45:25;;;;;;;9.53;8.53;;;;;;;11.31;73.85;97068.69;5029209;28;20202;-80
2022/11/12 11:47:54;;;;;;;9.80;8.90;;;;;;;11.14;73.48;97066.91;5029871;28;20198;-81
2022/11/12 11:50:27;;;;;;;9.53;8.73;;;;;;;11.17;73.27;97067.41;5032538;28;20194;-80
2022/11/12 11:53:04;;;;;;;9.40;8.60;;;;;;;11.28;73.48;97063.81;5031755;28;20519;-82
2022/11/12 11:55:44;;;;;;;8.93;8.03;;;;;;;11.43;73.65;97070.91;5031103;28;20201;-81
2022/11/12 11:58:31;;;;;;;9.13;8.33;;;;;;;11.54;73.60;97051.06;5027486;28;20190;-81
2022/11/12 12:01:11;;;;;;;9.57;8.57;;;;;;;11.54;72.98;97053.63;5031892;28;20216;-80
2022/11/12 12:03:51;;;;;;;9.63;8.63;;;;;;;11.56;73.37;97051.69;5025449;28;20187;-81